KMLS/MLS METAR and TAF weather

Enter ICAO airport designator
Station Type Date Time Source
KMLS METAR 2018/12/11 17:53 UTC NOAA

KMLS 111753Z AUTO 25005KT 10SM CLR 01/M02 A2998 RMK AO2 SLP182 T00061022 10006 21044 58009


Station Type Date Time Source
KMLS Decoded METAR 2018/12/11 17:53 UTC NOAA

MILES CITY WILEY FIELD, MT, United States (KMLS) 46-26N 105-53W 801M
Dec 11, 2018 - 12:53 PM EST / 2018.12.11 1753 UTC
Wind: from the WSW (250 degrees) at 6 MPH (5 KT):0
Visibility: 10 mile(s):0
Sky conditions: clear
Temperature: 33.1 F (0.6 C)
Windchill: 28 F (-2 C):1
Dew Point: 28.0 F (-2.2 C)
Relative Humidity: 81%
Pressure (altimeter): 29.98 in. Hg (1015 hPa)
Pressure tendency: 0.03 inches (0.9 hPa) lower than three hours ago
ob: KMLS 111753Z AUTO 25005KT 10SM CLR 01/M02 A2998 RMK AO2 SLP182 T00061022 10006 21044 58009
cycle: 18

Station Type Date Time Source
KMLS TAF 2018/12/11 18:22 UTC NOAA

TAF KMLS 111720Z 1118/1218 VRB06KT P6SM SKC
FM112300 17008KT P6SM SCT100 BKN200
FM121500 24023G33KT P6SM VCSH BKN060


Example: see airport list